CCGS Louis S. St-Laurent — CGBN — position and weather

sailwx.info

Track history (hours):
 
Tides and Currents Weather Stations Pressure Air Temp Water Temp Dewpoint Dewpoint Depression Visibility Wind Speed Wind Dir Waves Ship Positions

Oceanographic research ship CCGS Louis S. St-Laurent (Canada)

Detailed information on ship capabilities available from ARCUS's ALIAS (Arctic Logistics Information and Support) project.

Last reported at 2018-Apr-27 02:00 UTC. Time now 2018-Apr-27 02:47 UTC.
Position N 47°36' W 052°42'.

Length 119.63 m; beam 24.38 m; draft 9.9 m.

MMSI: 316165000.

Wind from 200 at 8 knots

Barometer 1026.0 mb
Air temperature 10.4 ° C
Dewpoint 3.4 ° C

Date/timePositionNaut miles runAvg speedWind from/ knotsBaromVisibWave heightAir tempDewpointWater temp
2018-Apr-27 02:00N 47°36' W 052°42'0 0.0 200 / 81026.0 10.4 3.4
2018-Apr-27 01:00N 47°36' W 052°42'0 0.0 210 / 91026.6 10.7 4.1
2018-Apr-27 00:00N 47°36' W 052°42'3 5.5 200 / 91026.9 11.2 5.7
2018-Apr-26 23:31N 47°33' W 052°42'3 4.9
2018-Apr-26 23:00N 47°36' W 052°42'0 0.0 210 / 111026.9 12.3 3.1
2018-Apr-26 22:00N 47°36' W 052°42'0 0.0 220 / 81026.8 13.7 4.7
2018-Apr-26 21:00N 47°36' W 052°42'0 0.0 220 / 91026.9 15.0 4.8
2018-Apr-26 20:00N 47°36' W 052°42'0 0.0 220 / 101026.2 16.9 0.6
2018-Apr-26 19:00N 47°36' W 052°42'0 0.0 210 / 141026.2 17.5-2.7
2018-Apr-26 18:00N 47°36' W 052°42'0 0.0 210 / 121026.5 18.1 3.4
2018-Apr-26 17:00N 47°36' W 052°42'0 0.0 220 / 81027.0 17.5 5.2
2018-Apr-26 16:00N 47°36' W 052°42'0 0.0 220 / 131027.2 16.3 4.5
2018-Apr-26 15:00N 47°36' W 052°42'0 0.0 220 / 61027.7 16.0 5.7
2018-Apr-26 14:00N 47°36' W 052°42'0 0.0 220 / 61027.7 15.7 5.8
2018-Apr-26 13:00N 47°36' W 052°42'0 0.0 230 / 81027.5 13.9 5.2
2018-Apr-26 12:00N 47°36' W 052°42'0 0.0 230 / 71027.2 13.8 5.7
2018-Apr-26 11:00N 47°36' W 052°42'0 0.0 220 / 101026.7 11.7 4.8
2018-Apr-26 10:00N 47°36' W 052°42'0 0.0 200 / 81025.8 8.5 2.8
2018-Apr-26 09:00N 47°36' W 052°42'0 0.0 210 / 71025.2 6.7 1.3
2018-Apr-26 08:00N 47°36' W 052°42'0 0.0 200 / 121024.4 7.4 0.6
2018-Apr-26 07:00N 47°36' W 052°42'0 0.0 200 / 111023.9 7.9 0.1
2018-Apr-26 06:00N 47°36' W 052°42'0 0.0 210 / 81023.7 8.1-0.2
2018-Apr-26 05:00N 47°36' W 052°42'0 0.0 210 / 101023.6 8.1-0.8
2018-Apr-26 04:00N 47°36' W 052°42'0 0.0 210 / 91023.7 8.8-1.8
2018-Apr-26 03:00N 47°36' W 052°42'3 4.9 200 / 111023.3 9.7-2.2
2018-Apr-26 02:28N 47°33' W 052°42'3 5.5
2018-Apr-26 02:00N 47°36' W 052°42'0 0.0 210 / 81023.4 10.8-2.9
2018-Apr-26 01:00N 47°36' W 052°42'0 0.0 220 / 31023.6 11.6-2.5
2018-Apr-26 00:00N 47°36' W 052°42'0 0.0 230 / 21023.0 13.0-2.8
2018-Apr-25 23:00N 47°36' W 052°42'0 0.0 230 / 41022.3 13.5-1.5
2018-Apr-25 22:00N 47°36' W 052°42'0 0.0 220 / 71021.8 14.3-1.8
2018-Apr-25 21:00N 47°36' W 052°42'0 0.0 220 / 61021.5 16.3-0.2
2018-Apr-25 20:00N 47°36' W 052°42'0 0.0 220 / 91021.2 16.9-0.0
2018-Apr-25 19:00N 47°36' W 052°42'0 0.0 220 / 141020.7 17.6-0.3
2018-Apr-25 18:00N 47°36' W 052°42'0 0.0 220 / 71020.5 19.1-0.6
2018-Apr-25 17:00N 47°36' W 052°42'0 0.0 220 / 51020.5 19.6-1.1
2018-Apr-25 16:00N 47°36' W 052°42'0 0.0 230 / 21020.6 19.3-2.0
2018-Apr-25 15:00N 47°36' W 052°42'0 0.0 220 / 71020.4 18.9-4.9
2018-Apr-25 14:00N 47°36' W 052°42'0 0.0 230 / 101020.8 17.3-3.4
2018-Apr-25 13:00N 47°36' W 052°42'0 0.0 230 / 51021.0 16.7-3.5
2018-Apr-25 12:00N 47°36' W 052°42'0 0.0 210 / 81021.1 14.5-3.2
2018-Apr-25 11:00N 47°36' W 052°42'0 0.0 200 / 91021.4 11.1-3.1
2018-Apr-25 10:00N 47°36' W 052°42'0 0.0 210 / 81021.0 7.7-3.1
2018-Apr-25 09:00N 47°36' W 052°42'0 0.0 230 / 51020.9 5.8-3.2
2018-Apr-25 08:00N 47°36' W 052°42'0 0.0 230 / 51020.6 4.9-2.8
2018-Apr-25 07:00N 47°36' W 052°42'0 0.0 220 / 91020.7 4.7-2.9
2018-Apr-25 06:00N 47°36' W 052°42'0 0.0 210 / 101020.6 5.4-3.0
2018-Apr-25 05:00N 47°36' W 052°42'0 0.0 210 / 131020.8 4.9-3.0
2018-Apr-25 04:00N 47°36' W 052°42'0 0.0 210 / 111020.9 5.2-3.5
2018-Apr-25 03:00N 47°36' W 052°42'0 0.0 220 / 81021.0 5.3-2.6
2018-Apr-25 02:00N 47°36' W 052°42'0 0.0 200 / 101021.6 5.6-2.1
2018-Apr-25 01:00N 47°36' W 052°42'0 0.0 210 / 41021.9 6.5-3.1
2018-Apr-24 23:00N 47°36' W 052°42'0 0.0 200 / 111021.7 9.9-4.9
2018-Apr-24 22:00N 47°36' W 052°42'0 0.0 220 / 101021.8 11.6-5.6
2018-Apr-24 21:00N 47°36' W 052°42'0 0.0 220 / 101021.9 13.2-5.1
2018-Apr-24 20:00N 47°36' W 052°42'0 0.0 220 / 91022.1 13.7-4.8
2018-Apr-24 19:00N 47°36' W 052°42'0 0.0 220 / 101022.5 13.5-6.0
2018-Apr-24 18:00N 47°36' W 052°42'0 0.0 230 / 51022.7 14.1-6.2
2018-Apr-24 17:00N 47°36' W 052°42'0 0.0 220 / 31023.2 14.1-5.5
2018-Apr-24 16:00N 47°36' W 052°42'0 0.0 220 / 41023.6 13.4-5.2
2018-Apr-24 15:00N 47°36' W 052°42'0 0.0 210 / 21023.9 13.3-4.6
2018-Apr-24 14:00N 47°36' W 052°42'0 0.0 220 / 41024.2 12.6-4.7
2018-Apr-24 13:00N 47°36' W 052°42'0 0.0 220 / 61024.4 10.9-4.4
2018-Apr-24 12:00N 47°36' W 052°42'0 0.0 230 / 51024.5 8.8-3.8
2018-Apr-24 10:00N 47°36' W 052°42'0 0.0 200 / 71024.9 4.3-4.2
2018-Apr-24 09:00N 47°36' W 052°42'0 0.0 210 / 71024.5 2.2-4.5
2018-Apr-24 08:00N 47°36' W 052°42'0 0.0 210 / 91024.0 1.9-4.3
2018-Apr-24 07:00N 47°36' W 052°42'0 0.0 210 / 81023.9 2.3-4.1
2018-Apr-24 06:00N 47°36' W 052°42'0 0.0 210 / 51023.9 2.3-3.8
2018-Apr-24 05:00N 47°36' W 052°42'0 0.0 200 / 61023.7 3.2-3.6
2018-Apr-24 04:00N 47°36' W 052°42'0 0.0 210 / 51023.5 2.8-3.4
2018-Apr-24 03:00N 47°36' W 052°42'0 0.0 200 / 61023.3 3.7-2.8
2018-Apr-24 02:00N 47°36' W 052°42'0 0.0 210 / 61023.0 3.5-2.6
2018-Apr-24 01:00N 47°36' W 052°42'0 0.0 200 / 101022.9 4.6-2.1
2018-Apr-24 00:00N 47°36' W 052°42'0 0.0 200 / 81022.4 5.0-1.8
2018-Apr-23 23:00N 47°36' W 052°42'0 0.0 210 / 91021.6 7.1-3.1
2018-Apr-23 22:00N 47°36' W 052°42'0 0.0 220 / 51021.1 9.2-6.3
2018-Apr-23 21:00N 47°36' W 052°42'0 0.0 220 / 41020.9 9.5-6.5
2018-Apr-23 19:00N 47°36' W 052°42'0 0.0 240 / 11020.8 10.2-6.8
2018-Apr-23 18:00N 47°36' W 052°42'0 0.0 270 / 11020.9 9.5-6.9
2018-Apr-23 17:00N 47°36' W 052°42'0 0.0 230 / 11021.2 9.3-6.5
2018-Apr-23 16:00N 47°36' W 052°42'0 0.0 230 / 41021.4 7.6-6.8
2018-Apr-23 15:00N 47°36' W 052°42'0 0.0 230 / 31021.7 6.8-5.9
2018-Apr-23 14:00N 47°36' W 052°42'0 0.0 240 / 21021.8 5.6-5.3
2018-Apr-23 13:00N 47°36' W 052°42'0 0.0 340 / 41021.7 3.7-5.5
2018-Apr-23 12:00N 47°36' W 052°42'0 0.0 200 / 21021.3 4.4-3.2
2018-Apr-23 11:00N 47°36' W 052°42'0 0.0 280 / 21020.9 3.5-3.2
2018-Apr-23 10:00N 47°36' W 052°42'0 0.0 200 / 21020.3 2.5-2.4
2018-Apr-23 09:00N 47°36' W 052°42'0 0.0 320 / 21019.6 0.7-4.4
2018-Apr-23 08:00N 47°36' W 052°42'0 0.0 360 / 31019.1 0.9-4.4
2018-Apr-23 07:00N 47°36' W 052°42'0 0.0 360 / 41018.7 1.0-4.6
2018-Apr-23 06:00N 47°36' W 052°42'0 0.0 070 / 11018.1 0.8-3.9
2018-Apr-23 05:00N 47°36' W 052°42'0 0.0 360 / 61017.8 0.5-2.8
2018-Apr-23 04:00N 47°36' W 052°42'0 0.0 020 / 61017.7 0.6-3.3
2018-Apr-23 03:00N 47°36' W 052°42'0 0.0 020 / 71017.5 1.0-3.1
2018-Apr-23 02:00N 47°36' W 052°42'0 0.0 020 / 51017.4 0.9-2.3
2018-Apr-23 01:00N 47°36' W 052°42'0 0.0 010 / 111016.9 1.4-0.6
2018-Apr-23 00:00N 47°36' W 052°42'0 0.0 030 / 51015.8 3.2-0.7
2018-Apr-22 23:00N 47°36' W 052°42'0 0.0 020 / 11014.9 4.6-0.5
2018-Apr-22 22:00N 47°36' W 052°42'0 0.0 010 / 31014.6 5.9-0.8
2018-Apr-22 21:00N 47°36' W 052°42'0 0.0 350 / 21014.3 7.0-1.0
2018-Apr-22 20:00N 47°36' W 052°42'0 0.0 310 / 31014.1 8.5-1.7
2018-Apr-22 19:00N 47°36' W 052°42'0 0.0 280 / 11013.8 8.5-2.0
2018-Apr-22 18:00N 47°36' W 052°42'0 0.0 220 / 51013.7 7.5-2.1
2018-Apr-22 17:00N 47°36' W 052°42'0 0.0 220 / 31013.7 7.4-2.2
2018-Apr-22 16:00N 47°36' W 052°42'0 0.0 220 / 21013.5 7.3-2.1
2018-Apr-22 15:00N 47°36' W 052°42'0 0.0 220 / 11013.5 5.9-2.1
2018-Apr-22 14:00N 47°36' W 052°42'0 0.0 220 / 41013.3 5.0-1.8
2018-Apr-22 13:00N 47°36' W 052°42'0 0.0 220 / 21013.2 4.6-2.1
2018-Apr-22 12:00N 47°36' W 052°42'0 0.0 230 / 11012.8 4.1-2.2
2018-Apr-22 11:00N 47°36' W 052°42'0 0.0 210 / 21012.4 3.5-1.8
2018-Apr-22 10:00N 47°36' W 052°42'0 0.0 220 / 31012.1 2.2-1.7
2018-Apr-22 09:00N 47°36' W 052°42'0 0.0 220 / 51011.2 2.3-1.7
2018-Apr-22 08:00N 47°36' W 052°42'0 0.0 220 / 31010.9 2.6-1.4
2018-Apr-22 07:00N 47°36' W 052°42'0 0.0 220 / 31010.4 2.5-1.0
2018-Apr-22 06:00N 47°36' W 052°42'0 0.0 220 / 61009.9 2.3-1.1
2018-Apr-22 05:00N 47°36' W 052°42'0 0.0 220 / 61009.5 2.5-1.1
2018-Apr-22 04:00N 47°36' W 052°42'0 0.0 220 / 71009.2 2.3-1.4
2018-Apr-22 03:00N 47°36' W 052°42'0 0.0 220 / 71008.8 2.1-1.5
2018-Apr-22 02:00N 47°36' W 052°42'0 0.0 210 / 91008.3 1.9-1.7
2018-Apr-22 01:00N 47°36' W 052°42'0 0.0 220 / 101008.1 2.2-1.8
2018-Apr-21 23:00N 47°36' W 052°42'0 0.0 220 / 101007.1 2.8-2.0
2018-Apr-21 22:00N 47°36' W 052°42'0 0.0 220 / 81006.5 3.7-2.1
2018-Apr-21 21:00N 47°36' W 052°42'0 0.0 220 / 131005.9 4.5-1.9
2018-Apr-21 20:00N 47°36' W 052°42'0 0.0 210 / 151005.2 4.9-1.7
2018-Apr-21 19:00N 47°36' W 052°42'0 0.0 210 / 111004.8 5.4-1.6
2018-Apr-21 18:00N 47°36' W 052°42'0 0.0 220 / 81004.4 6.1-1.4
2018-Apr-21 17:00N 47°36' W 052°42'0 0.0 220 / 101004.2 6.8-1.5
2018-Apr-21 16:00N 47°36' W 052°42'0 0.0 210 / 51003.9 6.9-1.2
2018-Apr-21 15:00N 47°36' W 052°42'0 0.0 220 / 71003.9 6.1-1.0
2018-Apr-21 14:00N 47°36' W 052°42'0 0.0 220 / 61003.7 5.4-0.8
2018-Apr-21 13:00N 47°36' W 052°42'0 0.0 220 / 111003.1 5.4-0.9
2018-Apr-21 12:00N 47°36' W 052°42'0 0.0 220 / 91002.8 3.4-1.0
2018-Apr-21 11:00N 47°36' W 052°42'0 0.0 210 / 161002.8 1.7-1.5
2018-Apr-21 10:00N 47°36' W 052°42'0 0.0 220 / 121002.4 1.1-1.5
2018-Apr-21 09:00N 47°36' W 052°42'0 0.0 210 / 91002.0 1.0-1.4
2018-Apr-21 08:00N 47°36' W 052°42'0 0.0 210 / 111001.6 0.8-1.5
2018-Apr-21 07:00N 47°36' W 052°42'0 0.0 210 / 131001.5 1.0-0.9
2018-Apr-21 06:00N 47°36' W 052°42'0 0.0 210 / 141001.0 1.5-0.8
2018-Apr-21 05:00N 47°36' W 052°42'0 0.0 210 / 161000.5 1.4-0.9
2018-Apr-21 04:00N 47°36' W 052°42'0 0.0 210 / 161000.8 1.5-0.7
2018-Apr-21 03:00N 47°36' W 052°42'0 0.0 210 / 141001.2 2.2-0.2
2018-Apr-21 02:00N 47°36' W 052°42'0 0.0 210 / 181001.0 2.4 0.3
2018-Apr-21 01:00N 47°36' W 052°42'0 0.0 210 / 151001.6 2.6 0.6
2018-Apr-21 00:00N 47°36' W 052°42'0 0.0 210 / 121001.9 2.8 1.1
2018-Apr-20 23:00N 47°36' W 052°42'0 0.0 210 / 131002.2 3.3 1.7
2018-Apr-20 22:00N 47°36' W 052°42'0 0.0 210 / 141002.1 4.4 2.6
2018-Apr-20 21:00N 47°36' W 052°42'0 0.0 350 / 11002.0 1.8 1.7
2018-Apr-20 20:00N 47°36' W 052°42'0 0.0 010 / 51002.6 0.7 0.7
2018-Apr-20 19:00N 47°36' W 052°42'0 0.0 010 / 61003.4 0.4 0.3
2018-Apr-20 18:00N 47°36' W 052°42'0 0.0 350 / 81003.8 0.2-0.0
2018-Apr-20 17:00N 47°36' W 052°42'0 0.0 020 / 91004.6 0.7 0.4
2018-Apr-20 16:00N 47°36' W 052°42'0 0.0 020 / 91004.6 0.6 0.3
2018-Apr-20 15:00N 47°36' W 052°42'0 0.0 020 / 81006.7 0.4-0.0
2018-Apr-20 14:00N 47°36' W 052°42'0 0.0 020 / 101006.8 0.4 0.1
2018-Apr-20 13:00N 47°36' W 052°42'0 0.0 020 / 91008.1 0.4-0.0
2018-Apr-20 12:00N 47°36' W 052°42'0 0.0 030 / 111007.9 0.7 0.2
2018-Apr-20 11:00N 47°36' W 052°42'0 0.0 050 / 61008.6 1.8 0.5
2018-Apr-20 10:00N 47°36' W 052°42'0 0.0 030 / 61009.2 1.7 0.5
2018-Apr-20 09:00N 47°36' W 052°42'0 0.0 030 / 21009.2 1.9 0.9
2018-Apr-20 08:00N 47°36' W 052°42'0 0.0 210 / 21009.9 1.6 0.2
2018-Apr-20 07:00N 47°36' W 052°42'3 2.9 210 / 41010.0 1.9-0.1
2018-Apr-20 06:07N 47°33' W 052°42'321.2
2018-Apr-20 06:00N 47°36' W 052°42'0 0.0 210 / 71010.5 1.4-0.5
2018-Apr-20 05:00N 47°36' W 052°42'0 0.0 210 / 21010.3 2.2-0.3
2018-Apr-20 04:00N 47°36' W 052°42'0 0.0 210 / 51009.9 2.0-0.2
2018-Apr-20 03:00N 47°36' W 052°42'0 0.0 200 / 61010.2 2.8 0.1
2018-Apr-20 02:00N 47°36' W 052°42'0 0.0 220 / 21010.1 3.7 0.2
2018-Apr-20 01:00N 47°36' W 052°42'0 0.0 220 / 101009.3 3.8 0.3
2018-Apr-20 00:00N 47°36' W 052°42'0 0.0 210 / 91009.3 4.4 0.5
2018-Apr-19 23:00N 47°36' W 052°42'0 0.0 220 / 111007.7 5.2 0.8
2018-Apr-19 22:00N 47°36' W 052°42'0 0.0 220 / 101006.8 6.6 1.2
2018-Apr-19 21:00N 47°36' W 052°42'0 0.0 220 / 101005.9 7.6 1.0
2018-Apr-19 20:00N 47°36' W 052°42'0 0.0 220 / 91005.3 8.3 0.6
2018-Apr-19 19:00N 47°36' W 052°42'0 0.0 220 / 131005.4 8.6 0.6
2018-Apr-19 18:00N 47°36' W 052°42'0 0.0 220 / 111004.6 8.8 0.9
2018-Apr-19 17:00N 47°36' W 052°42'0 0.0 220 / 111004.8 8.7 0.9
2018-Apr-19 16:00N 47°36' W 052°42'0 0.0 210 / 131004.4 7.7 1.3
2018-Apr-19 15:00N 47°36' W 052°42'0 0.0 220 / 111004.1 6.9 1.8
2018-Apr-19 14:00N 47°36' W 052°42'0 0.0 210 / 121004.5 5.0 1.9
2018-Apr-19 12:00N 47°36' W 052°42'0 0.0 210 / 111003.4 3.8 1.4
2018-Apr-19 11:00N 47°36' W 052°42'0 0.0 210 / 91003.2 2.9 0.9
2018-Apr-19 10:00N 47°36' W 052°42'0 0.0 210 / 91003.1 2.6 0.7
2018-Apr-19 09:00N 47°36' W 052°42'0 0.0 210 / 111002.4 2.8 0.4
2018-Apr-19 08:00N 47°36' W 052°42'0 0.0 210 / 101002.0 2.9 0.4
2018-Apr-19 07:00N 47°36' W 052°42'0 0.0 210 / 101002.0 2.9 0.2
2018-Apr-19 06:00N 47°36' W 052°42'0 0.0 210 / 131001.5 4.0 1.8
2018-Apr-19 05:00N 47°36' W 052°42'0 0.0 210 / 71001.0 3.6 1.7
2018-Apr-19 04:00N 47°36' W 052°42'0 0.0 210 / 101000.7 3.9 1.5
2018-Apr-19 03:00N 47°36' W 052°42'0 0.0 210 / 141000.4 3.8 1.5
2018-Apr-19 02:00N 47°36' W 052°42'0 0.0 210 / 12999.5 4.5 2.4
2018-Apr-19 01:00N 47°36' W 052°42'0 0.0 210 / 11998.5 5.1 3.4
2018-Apr-19 00:00N 47°36' W 052°42'0 0.0 210 / 11999.0 6.0 3.6
2018-Apr-18 23:00N 47°36' W 052°42'0 0.0 200 / 8997.9 8.4 7.0
2018-Apr-18 22:00N 47°36' W 052°42'0 0.0 020 / 3998.0 5.3 4.9
2018-Apr-18 21:00N 47°36' W 052°42'0 0.0 010 / 5998.0 5.8 5.1
2018-Apr-18 20:00N 47°36' W 052°42'0 0.0 220 / 4998.3 7.7 6.4
2018-Apr-18 19:00N 47°36' W 052°42'0 0.0 040 / 3999.6 5.6 4.8
2018-Apr-18 18:00N 47°36' W 052°42'0 0.0 350 / 41000.9 4.3 3.4
2018-Apr-18 17:00N 47°36' W 052°42'0 0.0 360 / 51003.3 3.7 2.6
2018-Apr-18 16:00N 47°36' W 052°42'0 0.0 050 / 11004.9 2.9 1.9
2018-Apr-18 14:00N 47°36' W 052°42'0 0.0 140 / 31008.7 1.4 0.6
2018-Apr-18 13:00N 47°36' W 052°42'0 0.0 080 / 51010.7 0.9-0.1
2018-Apr-18 12:00N 47°36' W 052°42'0 0.0 080 / 51012.5 0.6-0.4
2018-Apr-18 11:00N 47°36' W 052°42'0 0.0 130 / 31013.7 0.4-0.7
2018-Apr-18 10:00N 47°36' W 052°42'0 0.0 160 / 31014.9 0.9-1.6
2018-Apr-18 09:00N 47°36' W 052°42'0 0.0 140 / 21015.9 0.9-1.2
2018-Apr-18 08:00N 47°36' W 052°42'0 0.0 040 / 21016.9 0.6-1.1
2018-Apr-18 07:00N 47°36' W 052°42'0 0.0 100 / 11018.2 0.7-1.4
2018-Apr-18 06:00N 47°36' W 052°42'0 0.0 1019.0 0.6-1.7
2018-Apr-18 05:00N 47°36' W 052°42'0 0.0 210 / 21019.4 0.4-2.4
2018-Apr-18 04:00N 47°36' W 052°42'0 0.0 220 / 11020.5 0.2-2.8
2018-Apr-18 03:00N 47°36' W 052°42'3 3.1 220 / 11021.6 0.2-3.6
2018-Apr-18 02:10N 47°33' W 052°42'315.0
2018-Apr-18 02:00N 47°36' W 052°42'311.3 1022.1 -0.4-3.6
2018-Apr-18 01:46N 47°33' W 052°42'3 3.3
2018-Apr-18 01:00N 47°36' W 052°42'0 0.0 200 / 11022.9 -0.7-4.0
2018-Apr-18 00:00N 47°36' W 052°42'0 0.0 350 / 21023.1 -1.1-4.2
2018-Apr-17 23:00N 47°36' W 052°42'0 0.0 1023.1 -0.7-4.0
2018-Apr-17 22:00N 47°36' W 052°42'0 0.0 120 / 51022.9 -0.5-3.9
2018-Apr-17 21:00N 47°36' W 052°42'0 0.0 100 / 61023.1 -0.2-4.3
2018-Apr-17 20:00N 47°36' W 052°42'0 0.0 100 / 71023.2 0.7-4.3
2018-Apr-17 19:00N 47°36' W 052°42'0 0.0 050 / 51023.3 1.6-4.1
2018-Apr-17 18:00N 47°36' W 052°42'0 0.0 080 / 71023.0 2.0-4.1
2018-Apr-17 17:00N 47°36' W 052°42'0 0.0 060 / 81023.0 2.1-4.7
2018-Apr-17 16:00N 47°36' W 052°42'0 0.0 040 / 81023.0 2.8-5.0
2018-Apr-17 15:00N 47°36' W 052°42'0 0.0 330 / 51022.8 5.3-9.0
2018-Apr-17 14:00N 47°36' W 052°42'0 0.0 350 / 41023.4 4.6-8.2
2018-Apr-17 13:00N 47°36' W 052°42'0 0.0 300 / 21023.5 3.9-8.0
2018-Apr-17 12:00N 47°36' W 052°42'0 0.0 300 / 21023.6 3.1-7.5
2018-Apr-17 11:00N 47°36' W 052°42'0 0.0 220 / 21023.8 2.8-6.6
2018-Apr-17 10:00N 47°36' W 052°42'0 0.0 210 / 51023.8 -0.4-7.4
2018-Apr-17 09:00N 47°36' W 052°42'0 0.0 210 / 51023.9 -1.9-7.7
2018-Apr-17 08:00N 47°36' W 052°42'3 2.8 200 / 71023.5 -1.8-7.4
2018-Apr-17 07:04N 47°33' W 052°42'336.0
2018-Apr-17 07:00N 47°36' W 052°42'0 0.0 210 / 61023.8 -2.3-7.6
2018-Apr-17 06:00N 47°36' W 052°42'0 0.0 210 / 71024.1 -2.6-8.0
2018-Apr-17 05:00N 47°36' W 052°42'0 0.0 200 / 41024.3 -1.2-6.9
2018-Apr-17 04:00N 47°36' W 052°42'0 0.0 210 / 41024.7 -2.1-7.6
2018-Apr-17 03:00N 47°36' W 052°42'   220 / 31025.0 -0.9-7.4
Track history (hours):
 
Tides and Currents Weather Stations Pressure Air Temp Water Temp Dewpoint Dewpoint Depression Visibility Wind Speed Wind Dir Waves Ship Positions

Oceanographic research ship CCGS Louis S. St-Laurent (Canada)

Detailed information on ship capabilities available from ARCUS's ALIAS (Arctic Logistics Information and Support) project.

Last reported at 2018-Apr-27 02:00 UTC. Time now 2018-Apr-27 02:47 UTC.
Position N 47°36' W 052°42'.

Length 119.63 m; beam 24.38 m; draft 9.9 m.

MMSI: 316165000.

Wind from 200 at 8 knots

Barometer 1026.0 mb
Air temperature 10.4 ° C
Dewpoint 3.4 ° C

Date/timePositionNaut miles runAvg speedWind from/ knotsBaromVisibWave heightAir tempDewpointWater temp
2018-Apr-27 02:00N 47°36' W 052°42'0 0.0 200 / 81026.0 10.4 3.4
2018-Apr-27 01:00N 47°36' W 052°42'0 0.0 210 / 91026.6 10.7 4.1
2018-Apr-27 00:00N 47°36' W 052°42'3 5.5 200 / 91026.9 11.2 5.7
2018-Apr-26 23:31N 47°33' W 052°42'3 4.9
2018-Apr-26 23:00N 47°36' W 052°42'0 0.0 210 / 111026.9 12.3 3.1
2018-Apr-26 22:00N 47°36' W 052°42'0 0.0 220 / 81026.8 13.7 4.7
2018-Apr-26 21:00N 47°36' W 052°42'0 0.0 220 / 91026.9 15.0 4.8
2018-Apr-26 20:00N 47°36' W 052°42'0 0.0 220 / 101026.2 16.9 0.6
2018-Apr-26 19:00N 47°36' W 052°42'0 0.0 210 / 141026.2 17.5-2.7
2018-Apr-26 18:00N 47°36' W 052°42'0 0.0 210 / 121026.5 18.1 3.4
2018-Apr-26 17:00N 47°36' W 052°42'0 0.0 220 / 81027.0 17.5 5.2
2018-Apr-26 16:00N 47°36' W 052°42'0 0.0 220 / 131027.2 16.3 4.5
2018-Apr-26 15:00N 47°36' W 052°42'0 0.0 220 / 61027.7 16.0 5.7
2018-Apr-26 14:00N 47°36' W 052°42'0 0.0 220 / 61027.7 15.7 5.8
2018-Apr-26 13:00N 47°36' W 052°42'0 0.0 230 / 81027.5 13.9 5.2
2018-Apr-26 12:00N 47°36' W 052°42'0 0.0 230 / 71027.2 13.8 5.7
2018-Apr-26 11:00N 47°36' W 052°42'0 0.0 220 / 101026.7 11.7 4.8
2018-Apr-26 10:00N 47°36' W 052°42'0 0.0 200 / 81025.8 8.5 2.8
2018-Apr-26 09:00N 47°36' W 052°42'0 0.0 210 / 71025.2 6.7 1.3
2018-Apr-26 08:00N 47°36' W 052°42'0 0.0 200 / 121024.4 7.4 0.6
2018-Apr-26 07:00N 47°36' W 052°42'0 0.0 200 / 111023.9 7.9 0.1
2018-Apr-26 06:00N 47°36' W 052°42'0 0.0 210 / 81023.7 8.1-0.2
2018-Apr-26 05:00N 47°36' W 052°42'0 0.0 210 / 101023.6 8.1-0.8
2018-Apr-26 04:00N 47°36' W 052°42'0 0.0 210 / 91023.7 8.8-1.8
2018-Apr-26 03:00N 47°36' W 052°42'3 4.9 200 / 111023.3 9.7-2.2
2018-Apr-26 02:28N 47°33' W 052°42'3 5.5
2018-Apr-26 02:00N 47°36' W 052°42'0 0.0 210 / 81023.4 10.8-2.9
2018-Apr-26 01:00N 47°36' W 052°42'0 0.0 220 / 31023.6 11.6-2.5
2018-Apr-26 00:00N 47°36' W 052°42'0 0.0 230 / 21023.0 13.0-2.8
2018-Apr-25 23:00N 47°36' W 052°42'0 0.0 230 / 41022.3 13.5-1.5
2018-Apr-25 22:00N 47°36' W 052°42'0 0.0 220 / 71021.8 14.3-1.8
2018-Apr-25 21:00N 47°36' W 052°42'0 0.0 220 / 61021.5 16.3-0.2
2018-Apr-25 20:00N 47°36' W 052°42'0 0.0 220 / 91021.2 16.9-0.0
2018-Apr-25 19:00N 47°36' W 052°42'0 0.0 220 / 141020.7 17.6-0.3
2018-Apr-25 18:00N 47°36' W 052°42'0 0.0 220 / 71020.5 19.1-0.6
2018-Apr-25 17:00N 47°36' W 052°42'0 0.0 220 / 51020.5 19.6-1.1
2018-Apr-25 16:00N 47°36' W 052°42'0 0.0 230 / 21020.6 19.3-2.0
2018-Apr-25 15:00N 47°36' W 052°42'0 0.0 220 / 71020.4 18.9-4.9
2018-Apr-25 14:00N 47°36' W 052°42'0 0.0 230 / 101020.8 17.3-3.4
2018-Apr-25 13:00N 47°36' W 052°42'0 0.0 230 / 51021.0 16.7-3.5
2018-Apr-25 12:00N 47°36' W 052°42'0 0.0 210 / 81021.1 14.5-3.2
2018-Apr-25 11:00N 47°36' W 052°42'0 0.0 200 / 91021.4 11.1-3.1
2018-Apr-25 10:00N 47°36' W 052°42'0 0.0 210 / 81021.0 7.7-3.1
2018-Apr-25 09:00N 47°36' W 052°42'0 0.0 230 / 51020.9 5.8-3.2
2018-Apr-25 08:00N 47°36' W 052°42'0 0.0 230 / 51020.6 4.9-2.8
2018-Apr-25 07:00N 47°36' W 052°42'0 0.0 220 / 91020.7 4.7-2.9
2018-Apr-25 06:00N 47°36' W 052°42'0 0.0 210 / 101020.6 5.4-3.0
2018-Apr-25 05:00N 47°36' W 052°42'0 0.0 210 / 131020.8 4.9-3.0
2018-Apr-25 04:00N 47°36' W 052°42'0 0.0 210 / 111020.9 5.2-3.5
2018-Apr-25 03:00N 47°36' W 052°42'0 0.0 220 / 81021.0 5.3-2.6
2018-Apr-25 02:00N 47°36' W 052°42'0 0.0 200 / 101021.6 5.6-2.1
2018-Apr-25 01:00N 47°36' W 052°42'0 0.0 210 / 41021.9 6.5-3.1
2018-Apr-24 23:00N 47°36' W 052°42'0 0.0 200 / 111021.7 9.9-4.9
2018-Apr-24 22:00N 47°36' W 052°42'0 0.0 220 / 101021.8 11.6-5.6
2018-Apr-24 21:00N 47°36' W 052°42'0 0.0 220 / 101021.9 13.2-5.1
2018-Apr-24 20:00N 47°36' W 052°42'0 0.0 220 / 91022.1 13.7-4.8
2018-Apr-24 19:00N 47°36' W 052°42'0 0.0 220 / 101022.5 13.5-6.0
2018-Apr-24 18:00N 47°36' W 052°42'0 0.0 230 / 51022.7 14.1-6.2
2018-Apr-24 17:00N 47°36' W 052°42'0 0.0 220 / 31023.2 14.1-5.5
2018-Apr-24 16:00N 47°36' W 052°42'0 0.0 220 / 41023.6 13.4-5.2
2018-Apr-24 15:00N 47°36' W 052°42'0 0.0 210 / 21023.9 13.3-4.6
2018-Apr-24 14:00N 47°36' W 052°42'0 0.0 220 / 41024.2 12.6-4.7
2018-Apr-24 13:00N 47°36' W 052°42'0 0.0 220 / 61024.4 10.9-4.4
2018-Apr-24 12:00N 47°36' W 052°42'0 0.0 230 / 51024.5 8.8-3.8
2018-Apr-24 10:00N 47°36' W 052°42'0 0.0 200 / 71024.9 4.3-4.2
2018-Apr-24 09:00N 47°36' W 052°42'0 0.0 210 / 71024.5 2.2-4.5
2018-Apr-24 08:00N 47°36' W 052°42'0 0.0 210 / 91024.0 1.9-4.3
2018-Apr-24 07:00N 47°36' W 052°42'0 0.0 210 / 81023.9 2.3-4.1
2018-Apr-24 06:00N 47°36' W 052°42'0 0.0 210 / 51023.9 2.3-3.8
2018-Apr-24 05:00N 47°36' W 052°42'0 0.0 200 / 61023.7 3.2-3.6
2018-Apr-24 04:00N 47°36' W 052°42'0 0.0 210 / 51023.5 2.8-3.4
2018-Apr-24 03:00N 47°36' W 052°42'0 0.0 200 / 61023.3 3.7-2.8
2018-Apr-24 02:00N 47°36' W 052°42'0 0.0 210 / 61023.0 3.5-2.6
2018-Apr-24 01:00N 47°36' W 052°42'0 0.0 200 / 101022.9 4.6-2.1
2018-Apr-24 00:00N 47°36' W 052°42'0 0.0 200 / 81022.4 5.0-1.8
2018-Apr-23 23:00N 47°36' W 052°42'0 0.0 210 / 91021.6 7.1-3.1
2018-Apr-23 22:00N 47°36' W 052°42'0 0.0 220 / 51021.1 9.2-6.3
2018-Apr-23 21:00N 47°36' W 052°42'0 0.0 220 / 41020.9 9.5-6.5
2018-Apr-23 19:00N 47°36' W 052°42'0 0.0 240 / 11020.8 10.2-6.8
2018-Apr-23 18:00N 47°36' W 052°42'0 0.0 270 / 11020.9 9.5-6.9
2018-Apr-23 17:00N 47°36' W 052°42'0 0.0 230 / 11021.2 9.3-6.5
2018-Apr-23 16:00N 47°36' W 052°42'0 0.0 230 / 41021.4 7.6-6.8
2018-Apr-23 15:00N 47°36' W 052°42'0 0.0 230 / 31021.7 6.8-5.9
2018-Apr-23 14:00N 47°36' W 052°42'0 0.0 240 / 21021.8 5.6-5.3
2018-Apr-23 13:00N 47°36' W 052°42'0 0.0 340 / 41021.7 3.7-5.5
2018-Apr-23 12:00N 47°36' W 052°42'0 0.0 200 / 21021.3 4.4-3.2
2018-Apr-23 11:00N 47°36' W 052°42'0 0.0 280 / 21020.9 3.5-3.2
2018-Apr-23 10:00N 47°36' W 052°42'0 0.0 200 / 21020.3 2.5-2.4
2018-Apr-23 09:00N 47°36' W 052°42'0 0.0 320 / 21019.6 0.7-4.4
2018-Apr-23 08:00N 47°36' W 052°42'0 0.0 360 / 31019.1 0.9-4.4
2018-Apr-23 07:00N 47°36' W 052°42'0 0.0 360 / 41018.7 1.0-4.6
2018-Apr-23 06:00N 47°36' W 052°42'0 0.0 070 / 11018.1 0.8-3.9
2018-Apr-23 05:00N 47°36' W 052°42'0 0.0 360 / 61017.8 0.5-2.8
2018-Apr-23 04:00N 47°36' W 052°42'0 0.0 020 / 61017.7 0.6-3.3
2018-Apr-23 03:00N 47°36' W 052°42'0 0.0 020 / 71017.5 1.0-3.1
2018-Apr-23 02:00N 47°36' W 052°42'0 0.0 020 / 51017.4 0.9-2.3
2018-Apr-23 01:00N 47°36' W 052°42'0 0.0 010 / 111016.9 1.4-0.6
2018-Apr-23 00:00N 47°36' W 052°42'0 0.0 030 / 51015.8 3.2-0.7
2018-Apr-22 23:00N 47°36' W 052°42'0 0.0 020 / 11014.9 4.6-0.5
2018-Apr-22 22:00N 47°36' W 052°42'0 0.0 010 / 31014.6 5.9-0.8
2018-Apr-22 21:00N 47°36' W 052°42'0 0.0 350 / 21014.3 7.0-1.0
2018-Apr-22 20:00N 47°36' W 052°42'0 0.0 310 / 31014.1 8.5-1.7
2018-Apr-22 19:00N 47°36' W 052°42'0 0.0 280 / 11013.8 8.5-2.0
2018-Apr-22 18:00N 47°36' W 052°42'0 0.0 220 / 51013.7 7.5-2.1
2018-Apr-22 17:00N 47°36' W 052°42'0 0.0 220 / 31013.7 7.4-2.2
2018-Apr-22 16:00N 47°36' W 052°42'0 0.0 220 / 21013.5 7.3-2.1
2018-Apr-22 15:00N 47°36' W 052°42'0 0.0 220 / 11013.5 5.9-2.1
2018-Apr-22 14:00N 47°36' W 052°42'0 0.0 220 / 41013.3 5.0-1.8
2018-Apr-22 13:00N 47°36' W 052°42'0 0.0 220 / 21013.2 4.6-2.1
2018-Apr-22 12:00N 47°36' W 052°42'0 0.0 230 / 11012.8 4.1-2.2
2018-Apr-22 11:00N 47°36' W 052°42'0 0.0 210 / 21012.4 3.5-1.8
2018-Apr-22 10:00N 47°36' W 052°42'0 0.0 220 / 31012.1 2.2-1.7
2018-Apr-22 09:00N 47°36' W 052°42'0 0.0 220 / 51011.2 2.3-1.7
2018-Apr-22 08:00N 47°36' W 052°42'0 0.0 220 / 31010.9 2.6-1.4
2018-Apr-22 07:00N 47°36' W 052°42'0 0.0 220 / 31010.4 2.5-1.0
2018-Apr-22 06:00N 47°36' W 052°42'0 0.0 220 / 61009.9 2.3-1.1
2018-Apr-22 05:00N 47°36' W 052°42'0 0.0 220 / 61009.5 2.5-1.1
2018-Apr-22 04:00N 47°36' W 052°42'0 0.0 220 / 71009.2 2.3-1.4
2018-Apr-22 03:00N 47°36' W 052°42'0 0.0 220 / 71008.8 2.1-1.5
2018-Apr-22 02:00N 47°36' W 052°42'0 0.0 210 / 91008.3 1.9-1.7
2018-Apr-22 01:00N 47°36' W 052°42'0 0.0 220 / 101008.1 2.2-1.8
2018-Apr-21 23:00N 47°36' W 052°42'0 0.0 220 / 101007.1 2.8-2.0
2018-Apr-21 22:00N 47°36' W 052°42'0 0.0 220 / 81006.5 3.7-2.1
2018-Apr-21 21:00N 47°36' W 052°42'0 0.0 220 / 131005.9 4.5-1.9
2018-Apr-21 20:00N 47°36' W 052°42'0 0.0 210 / 151005.2 4.9-1.7
2018-Apr-21 19:00N 47°36' W 052°42'0 0.0 210 / 111004.8 5.4-1.6
2018-Apr-21 18:00N 47°36' W 052°42'0 0.0 220 / 81004.4 6.1-1.4
2018-Apr-21 17:00N 47°36' W 052°42'0 0.0 220 / 101004.2 6.8-1.5
2018-Apr-21 16:00N 47°36' W 052°42'0 0.0 210 / 51003.9 6.9-1.2
2018-Apr-21 15:00N 47°36' W 052°42'0 0.0 220 / 71003.9 6.1-1.0
2018-Apr-21 14:00N 47°36' W 052°42'0 0.0 220 / 61003.7 5.4-0.8
2018-Apr-21 13:00N 47°36' W 052°42'0 0.0 220 / 111003.1 5.4-0.9
2018-Apr-21 12:00N 47°36' W 052°42'0 0.0 220 / 91002.8 3.4-1.0
2018-Apr-21 11:00N 47°36' W 052°42'0 0.0 210 / 161002.8 1.7-1.5
2018-Apr-21 10:00N 47°36' W 052°42'0 0.0 220 / 121002.4 1.1-1.5
2018-Apr-21 09:00N 47°36' W 052°42'0 0.0 210 / 91002.0 1.0-1.4
2018-Apr-21 08:00N 47°36' W 052°42'0 0.0 210 / 111001.6 0.8-1.5
2018-Apr-21 07:00N 47°36' W 052°42'0 0.0 210 / 131001.5 1.0-0.9
2018-Apr-21 06:00N 47°36' W 052°42'0 0.0 210 / 141001.0 1.5-0.8
2018-Apr-21 05:00N 47°36' W 052°42'0 0.0 210 / 161000.5 1.4-0.9
2018-Apr-21 04:00N 47°36' W 052°42'0 0.0 210 / 161000.8 1.5-0.7
2018-Apr-21 03:00N 47°36' W 052°42'0 0.0 210 / 141001.2 2.2-0.2
2018-Apr-21 02:00N 47°36' W 052°42'0 0.0 210 / 181001.0 2.4 0.3
2018-Apr-21 01:00N 47°36' W 052°42'0 0.0 210 / 151001.6 2.6 0.6
2018-Apr-21 00:00N 47°36' W 052°42'0 0.0 210 / 121001.9 2.8 1.1
2018-Apr-20 23:00N 47°36' W 052°42'0 0.0 210 / 131002.2 3.3 1.7
2018-Apr-20 22:00N 47°36' W 052°42'0 0.0 210 / 141002.1 4.4 2.6
2018-Apr-20 21:00N 47°36' W 052°42'0 0.0 350 / 11002.0 1.8 1.7
2018-Apr-20 20:00N 47°36' W 052°42'0 0.0 010 / 51002.6 0.7 0.7
2018-Apr-20 19:00N 47°36' W 052°42'0 0.0 010 / 61003.4 0.4 0.3
2018-Apr-20 18:00N 47°36' W 052°42'0 0.0 350 / 81003.8 0.2-0.0
2018-Apr-20 17:00N 47°36' W 052°42'0 0.0 020 / 91004.6 0.7 0.4
2018-Apr-20 16:00N 47°36' W 052°42'0 0.0 020 / 91004.6 0.6 0.3
2018-Apr-20 15:00N 47°36' W 052°42'0 0.0 020 / 81006.7 0.4-0.0
2018-Apr-20 14:00N 47°36' W 052°42'0 0.0 020 / 101006.8 0.4 0.1
2018-Apr-20 13:00N 47°36' W 052°42'0 0.0 020 / 91008.1 0.4-0.0
2018-Apr-20 12:00N 47°36' W 052°42'0 0.0 030 / 111007.9 0.7 0.2
2018-Apr-20 11:00N 47°36' W 052°42'0 0.0 050 / 61008.6 1.8 0.5
2018-Apr-20 10:00N 47°36' W 052°42'0 0.0 030 / 61009.2 1.7 0.5
2018-Apr-20 09:00N 47°36' W 052°42'0 0.0 030 / 21009.2 1.9 0.9
2018-Apr-20 08:00N 47°36' W 052°42'0 0.0 210 / 21009.9 1.6 0.2
2018-Apr-20 07:00N 47°36' W 052°42'3 2.9 210 / 41010.0 1.9-0.1
2018-Apr-20 06:07N 47°33' W 052°42'321.2
2018-Apr-20 06:00N 47°36' W 052°42'0 0.0 210 / 71010.5 1.4-0.5
2018-Apr-20 05:00N 47°36' W 052°42'0 0.0 210 / 21010.3 2.2-0.3
2018-Apr-20 04:00N 47°36' W 052°42'0 0.0 210 / 51009.9 2.0-0.2
2018-Apr-20 03:00N 47°36' W 052°42'0 0.0 200 / 61010.2 2.8 0.1
2018-Apr-20 02:00N 47°36' W 052°42'0 0.0 220 / 21010.1 3.7 0.2
2018-Apr-20 01:00N 47°36' W 052°42'0 0.0 220 / 101009.3 3.8 0.3
2018-Apr-20 00:00N 47°36' W 052°42'0 0.0 210 / 91009.3 4.4 0.5
2018-Apr-19 23:00N 47°36' W 052°42'0 0.0 220 / 111007.7 5.2 0.8
2018-Apr-19 22:00N 47°36' W 052°42'0 0.0 220 / 101006.8 6.6 1.2
2018-Apr-19 21:00N 47°36' W 052°42'0 0.0 220 / 101005.9 7.6 1.0
2018-Apr-19 20:00N 47°36' W 052°42'0 0.0 220 / 91005.3 8.3 0.6
2018-Apr-19 19:00N 47°36' W 052°42'0 0.0 220 / 131005.4 8.6 0.6
2018-Apr-19 18:00N 47°36' W 052°42'0 0.0 220 / 111004.6 8.8 0.9
2018-Apr-19 17:00N 47°36' W 052°42'0 0.0 220 / 111004.8 8.7 0.9
2018-Apr-19 16:00N 47°36' W 052°42'0 0.0 210 / 131004.4 7.7 1.3
2018-Apr-19 15:00N 47°36' W 052°42'0 0.0 220 / 111004.1 6.9 1.8
2018-Apr-19 14:00N 47°36' W 052°42'0 0.0 210 / 121004.5 5.0 1.9
2018-Apr-19 12:00N 47°36' W 052°42'0 0.0 210 / 111003.4 3.8 1.4
2018-Apr-19 11:00N 47°36' W 052°42'0 0.0 210 / 91003.2 2.9 0.9
2018-Apr-19 10:00N 47°36' W 052°42'0 0.0 210 / 91003.1 2.6 0.7
2018-Apr-19 09:00N 47°36' W 052°42'0 0.0 210 / 111002.4 2.8 0.4
2018-Apr-19 08:00N 47°36' W 052°42'0 0.0 210 / 101002.0 2.9 0.4
2018-Apr-19 07:00N 47°36' W 052°42'0 0.0 210 / 101002.0 2.9 0.2
2018-Apr-19 06:00N 47°36' W 052°42'0 0.0 210 / 131001.5 4.0 1.8
2018-Apr-19 05:00N 47°36' W 052°42'0 0.0 210 / 71001.0 3.6 1.7
2018-Apr-19 04:00N 47°36' W 052°42'0 0.0 210 / 101000.7 3.9 1.5
2018-Apr-19 03:00N 47°36' W 052°42'0 0.0 210 / 141000.4 3.8 1.5
2018-Apr-19 02:00N 47°36' W 052°42'0 0.0 210 / 12999.5 4.5 2.4
2018-Apr-19 01:00N 47°36' W 052°42'0 0.0 210 / 11998.5 5.1 3.4
2018-Apr-19 00:00N 47°36' W 052°42'0 0.0 210 / 11999.0 6.0 3.6
2018-Apr-18 23:00N 47°36' W 052°42'0 0.0 200 / 8997.9 8.4 7.0
2018-Apr-18 22:00N 47°36' W 052°42'0 0.0 020 / 3998.0 5.3 4.9
2018-Apr-18 21:00N 47°36' W 052°42'0 0.0 010 / 5998.0 5.8 5.1
2018-Apr-18 20:00N 47°36' W 052°42'0 0.0 220 / 4998.3 7.7 6.4
2018-Apr-18 19:00N 47°36' W 052°42'0 0.0 040 / 3999.6 5.6 4.8
2018-Apr-18 18:00N 47°36' W 052°42'0 0.0 350 / 41000.9 4.3 3.4
2018-Apr-18 17:00N 47°36' W 052°42'0 0.0 360 / 51003.3 3.7 2.6
2018-Apr-18 16:00N 47°36' W 052°42'0 0.0 050 / 11004.9 2.9 1.9
2018-Apr-18 14:00N 47°36' W 052°42'0 0.0 140 / 31008.7 1.4 0.6
2018-Apr-18 13:00N 47°36' W 052°42'0 0.0 080 / 51010.7 0.9-0.1
2018-Apr-18 12:00N 47°36' W 052°42'0 0.0 080 / 51012.5 0.6-0.4
2018-Apr-18 11:00N 47°36' W 052°42'0 0.0 130 / 31013.7 0.4-0.7
2018-Apr-18 10:00N 47°36' W 052°42'0 0.0 160 / 31014.9 0.9-1.6
2018-Apr-18 09:00N 47°36' W 052°42'0 0.0 140 / 21015.9 0.9-1.2
2018-Apr-18 08:00N 47°36' W 052°42'0 0.0 040 / 21016.9 0.6-1.1
2018-Apr-18 07:00N 47°36' W 052°42'0 0.0 100 / 11018.2 0.7-1.4
2018-Apr-18 06:00N 47°36' W 052°42'0 0.0 1019.0 0.6-1.7
2018-Apr-18 05:00N 47°36' W 052°42'0 0.0 210 / 21019.4 0.4-2.4
2018-Apr-18 04:00N 47°36' W 052°42'0 0.0 220 / 11020.5 0.2-2.8
2018-Apr-18 03:00N 47°36' W 052°42'3 3.1 220 / 11021.6 0.2-3.6
2018-Apr-18 02:10N 47°33' W 052°42'315.0
2018-Apr-18 02:00N 47°36' W 052°42'311.3 1022.1 -0.4-3.6
2018-Apr-18 01:46N 47°33' W 052°42'3 3.3
2018-Apr-18 01:00N 47°36' W 052°42'0 0.0 200 / 11022.9 -0.7-4.0
2018-Apr-18 00:00N 47°36' W 052°42'0 0.0 350 / 21023.1 -1.1-4.2
2018-Apr-17 23:00N 47°36' W 052°42'0 0.0 1023.1 -0.7-4.0
2018-Apr-17 22:00N 47°36' W 052°42'0 0.0 120 / 51022.9 -0.5-3.9
2018-Apr-17 21:00N 47°36' W 052°42'0 0.0 100 / 61023.1 -0.2-4.3
2018-Apr-17 20:00N 47°36' W 052°42'0 0.0 100 / 71023.2 0.7-4.3
2018-Apr-17 19:00N 47°36' W 052°42'0 0.0 050 / 51023.3 1.6-4.1
2018-Apr-17 18:00N 47°36' W 052°42'0 0.0 080 / 71023.0 2.0-4.1
2018-Apr-17 17:00N 47°36' W 052°42'0 0.0 060 / 81023.0 2.1-4.7
2018-Apr-17 16:00N 47°36' W 052°42'0 0.0 040 / 81023.0 2.8-5.0
2018-Apr-17 15:00N 47°36' W 052°42'0 0.0 330 / 51022.8 5.3-9.0
2018-Apr-17 14:00N 47°36' W 052°42'0 0.0 350 / 41023.4 4.6-8.2
2018-Apr-17 13:00N 47°36' W 052°42'0 0.0 300 / 21023.5 3.9-8.0
2018-Apr-17 12:00N 47°36' W 052°42'0 0.0 300 / 21023.6 3.1-7.5
2018-Apr-17 11:00N 47°36' W 052°42'0 0.0 220 / 21023.8 2.8-6.6
2018-Apr-17 10:00N 47°36' W 052°42'0 0.0 210 / 51023.8 -0.4-7.4
2018-Apr-17 09:00N 47°36' W 052°42'0 0.0 210 / 51023.9 -1.9-7.7
2018-Apr-17 08:00N 47°36' W 052°42'3 2.8 200 / 71023.5 -1.8-7.4
2018-Apr-17 07:04N 47°33' W 052°42'336.0
2018-Apr-17 07:00N 47°36' W 052°42'0 0.0 210 / 61023.8 -2.3-7.6
2018-Apr-17 06:00N 47°36' W 052°42'0 0.0 210 / 71024.1 -2.6-8.0
2018-Apr-17 05:00N 47°36' W 052°42'0 0.0 200 / 41024.3 -1.2-6.9
2018-Apr-17 04:00N 47°36' W 052°42'0 0.0 210 / 41024.7 -2.1-7.6
2018-Apr-17 03:00N 47°36' W 052°42'   220 / 31025.0 -0.9-7.4

Dump ship's entire track history